createdAt,value
2022-12-25T00:00:26.390Z,8.87
2022-12-25T00:01:26.224Z,8.89
2022-12-25T00:02:26.501Z,8.91
2022-12-25T00:03:26.325Z,8.93
2022-12-25T00:04:26.323Z,8.94
2022-12-25T00:05:26.163Z,8.92
2022-12-25T00:06:26.268Z,8.90
2022-12-25T00:07:26.144Z,8.89
2022-12-25T00:08:26.175Z,8.86
2022-12-25T00:09:26.113Z,8.79
2022-12-25T00:10:26.225Z,8.70
2022-12-25T00:11:26.095Z,8.58
2022-12-25T00:12:26.167Z,8.46
2022-12-25T00:13:26.058Z,8.35
2022-12-25T00:14:26.158Z,8.26
2022-12-25T00:15:26.034Z,8.18
2022-12-25T00:16:26.215Z,8.10
2022-12-25T00:17:25.999Z,8.02
2022-12-25T00:18:26.179Z,7.95
2022-12-25T00:19:25.983Z,7.87
2022-12-25T00:20:28.203Z,7.80
2022-12-25T00:21:25.959Z,7.75
2022-12-25T00:22:26.033Z,7.71
2022-12-25T00:23:25.923Z,7.69
2022-12-25T00:24:26.997Z,7.67
2022-12-25T00:25:25.910Z,7.65
2022-12-25T00:26:26.074Z,7.62
2022-12-25T00:27:25.882Z,7.58
2022-12-25T00:28:26.043Z,7.56
2022-12-25T00:29:25.856Z,7.52
2022-12-25T00:30:27.973Z,7.50
2022-12-25T00:31:25.884Z,7.50
2022-12-25T00:32:25.968Z,7.50
2022-12-25T00:33:25.792Z,7.49
2022-12-25T00:34:25.954Z,7.47
2022-12-25T00:35:25.771Z,7.45
2022-12-25T00:36:26.917Z,7.41
2022-12-25T00:37:25.750Z,7.37
2022-12-25T00:38:25.873Z,7.32
2022-12-25T00:39:25.711Z,7.28
2022-12-25T00:40:25.743Z,7.23
2022-12-25T00:41:25.695Z,7.18
2022-12-25T00:42:25.787Z,7.15
2022-12-25T00:43:25.661Z,7.11
2022-12-25T00:44:25.781Z,7.07
2022-12-25T00:45:25.674Z,7.04
2022-12-25T00:46:25.829Z,7.01
2022-12-25T00:47:25.661Z,6.99
2022-12-25T00:48:25.800Z,6.97
2022-12-25T00:49:25.591Z,6.97
2022-12-25T00:50:25.682Z,6.96
2022-12-25T00:51:25.555Z,6.96
2022-12-25T00:52:25.670Z,6.96
2022-12-25T00:53:25.523Z,6.94
2022-12-25T00:54:25.607Z,6.92
2022-12-25T00:55:25.505Z,6.90
2022-12-25T00:56:25.690Z,6.87
2022-12-25T00:57:25.469Z,6.84
2022-12-25T00:58:25.566Z,6.81
2022-12-25T00:59:25.441Z,6.78
2022-12-25T01:00:25.507Z,6.76
2022-12-25T01:01:25.489Z,6.74
2022-12-25T01:02:25.921Z,6.72
2022-12-25T01:03:25.449Z,6.70
2022-12-25T01:04:27.571Z,6.67
2022-12-25T01:05:25.377Z,6.64
2022-12-25T01:06:25.514Z,6.61
2022-12-25T01:07:25.362Z,6.58
2022-12-25T01:08:25.401Z,6.56
2022-12-25T01:09:25.321Z,6.56
2022-12-25T01:10:46.357Z,6.56
2022-12-25T01:11:25.300Z,6.57
2022-12-25T01:12:25.426Z,6.57
2022-12-25T01:13:25.261Z,6.58
2022-12-25T01:14:25.408Z,6.58
2022-12-25T01:15:25.239Z,6.56
2022-12-25T01:16:25.406Z,6.55
2022-12-25T01:17:25.199Z,6.55
2022-12-25T01:18:25.318Z,6.54
2022-12-25T01:19:25.182Z,6.53
2022-12-25T01:20:25.309Z,6.52
2022-12-25T01:21:25.151Z,6.51
2022-12-25T01:22:27.295Z,6.48
2022-12-25T01:23:25.130Z,6.45
2022-12-25T01:24:25.233Z,6.43
2022-12-25T01:25:25.100Z,6.41
2022-12-25T01:26:28.412Z,6.41
2022-12-25T01:27:25.071Z,6.42
2022-12-25T01:28:25.198Z,6.44
2022-12-25T01:29:25.040Z,6.46
2022-12-25T01:30:26.158Z,6.46
2022-12-25T01:31:25.097Z,6.45
2022-12-25T01:32:25.117Z,6.46
2022-12-25T01:33:24.995Z,6.48
2022-12-25T01:34:25.107Z,6.50
2022-12-25T01:35:24.966Z,6.53
2022-12-25T01:36:25.044Z,6.57
2022-12-25T01:37:24.947Z,6.57
2022-12-25T01:38:25.018Z,6.56
2022-12-25T01:39:24.910Z,6.53
2022-12-25T01:40:25.005Z,6.51
2022-12-25T01:41:24.876Z,6.48
2022-12-25T01:42:25.049Z,6.45
2022-12-25T01:43:24.859Z,6.46
2022-12-25T01:44:24.968Z,6.50
2022-12-25T01:45:24.866Z,6.54
2022-12-25T01:46:25.014Z,6.58
2022-12-25T01:47:24.798Z,6.62
2022-12-25T01:48:24.952Z,6.65
2022-12-25T01:49:24.800Z,6.66
2022-12-25T01:50:24.944Z,6.68
2022-12-25T01:51:24.753Z,6.69
2022-12-25T01:52:24.919Z,6.71
2022-12-25T01:53:24.727Z,6.71
2022-12-25T01:54:25.778Z,6.70
2022-12-25T01:55:24.700Z,6.68
2022-12-25T01:56:24.851Z,6.65
2022-12-25T01:57:24.673Z,6.62
2022-12-25T01:58:24.847Z,6.60
2022-12-25T01:59:24.642Z,6.58
2022-12-25T02:00:24.774Z,6.56
2022-12-25T02:01:24.752Z,6.54
2022-12-25T02:02:24.885Z,6.51
2022-12-25T02:03:24.660Z,6.48
2022-12-25T02:04:24.628Z,6.46
2022-12-25T02:05:24.632Z,6.44
2022-12-25T02:06:24.666Z,6.42
2022-12-25T02:07:24.545Z,6.39
2022-12-25T02:08:24.663Z,6.37
2022-12-25T02:09:24.506Z,6.36
2022-12-25T02:10:24.642Z,6.34
2022-12-25T02:11:24.477Z,6.33
2022-12-25T02:12:24.567Z,6.31
2022-12-25T02:13:24.455Z,6.29
2022-12-25T02:14:24.561Z,6.27
2022-12-25T02:15:24.439Z,6.26
2022-12-25T02:16:57.864Z,6.26
2022-12-25T02:17:25.426Z,6.25
2022-12-25T02:18:24.578Z,6.25
2022-12-25T02:19:24.378Z,6.25
2022-12-25T02:20:24.628Z,6.26
2022-12-25T02:21:24.353Z,6.28
2022-12-25T02:22:24.448Z,6.29
2022-12-25T02:23:24.325Z,6.31
2022-12-25T02:24:24.386Z,6.32
2022-12-25T02:25:24.295Z,6.33
2022-12-25T02:26:24.476Z,6.32
2022-12-25T02:27:24.267Z,6.33
2022-12-25T02:28:24.463Z,6.33
2022-12-25T02:29:24.237Z,6.33
2022-12-25T02:30:24.288Z,6.33
2022-12-25T02:31:24.264Z,6.33
2022-12-25T02:32:24.288Z,6.33
2022-12-25T02:33:24.193Z,6.34
2022-12-25T02:34:24.264Z,6.35
2022-12-25T02:35:24.156Z,6.35
2022-12-25T02:36:45.275Z,6.34
2022-12-25T02:37:24.162Z,6.32
2022-12-25T02:38:24.284Z,6.32
2022-12-25T02:39:24.106Z,6.32
2022-12-25T02:40:24.178Z,6.32
2022-12-25T02:41:24.075Z,6.31
2022-12-25T02:42:24.197Z,6.31
2022-12-25T02:43:24.070Z,6.32
2022-12-25T02:44:24.185Z,6.32
2022-12-25T02:45:24.170Z,6.31
2022-12-25T02:46:24.228Z,6.29
2022-12-25T02:47:23.996Z,6.28
2022-12-25T02:48:24.109Z,6.28
2022-12-25T02:49:23.989Z,6.28
2022-12-25T02:50:24.100Z,6.28
2022-12-25T02:51:23.955Z,6.26
2022-12-25T02:52:24.077Z,6.23
2022-12-25T02:53:23.917Z,6.21
2022-12-25T02:54:25.036Z,6.19
2022-12-25T02:55:23.899Z,6.18
2022-12-25T02:56:24.104Z,6.16
2022-12-25T02:57:23.894Z,6.13
2022-12-25T02:58:23.985Z,6.10
2022-12-25T02:59:23.846Z,6.09
2022-12-25T03:00:24.947Z,6.08
2022-12-25T03:01:24.035Z,6.08
2022-12-25T03:02:23.978Z,6.08
2022-12-25T03:03:23.820Z,6.08
2022-12-25T03:04:23.895Z,6.08
2022-12-25T03:05:23.754Z,6.07
2022-12-25T03:06:24.951Z,6.07
2022-12-25T03:07:23.736Z,6.07
2022-12-25T03:08:23.812Z,6.08
2022-12-25T03:09:23.705Z,6.08
2022-12-25T03:10:23.800Z,6.09
2022-12-25T03:11:23.674Z,6.09
2022-12-25T03:12:24.767Z,6.09
2022-12-25T03:13:23.666Z,6.10
2022-12-25T03:14:23.843Z,6.11
2022-12-25T03:15:23.624Z,6.12
2022-12-25T03:16:23.765Z,6.13
2022-12-25T03:17:23.604Z,6.14
2022-12-25T03:18:23.634Z,6.14
2022-12-25T03:19:23.585Z,6.13
2022-12-25T03:20:24.751Z,6.12
2022-12-25T03:21:23.553Z,6.10
2022-12-25T03:22:23.707Z,6.09
2022-12-25T03:23:23.517Z,6.08
2022-12-25T03:24:25.746Z,6.07
2022-12-25T03:25:23.493Z,6.06
2022-12-25T03:26:23.543Z,6.06
2022-12-25T03:27:23.469Z,6.05
2022-12-25T03:28:24.543Z,6.05
2022-12-25T03:29:28.521Z,6.04
2022-12-25T03:30:24.463Z,6.04
2022-12-25T03:31:23.610Z,6.03
2022-12-25T03:32:23.434Z,6.03
2022-12-25T03:33:44.724Z,6.03
2022-12-25T03:34:24.379Z,6.03
2022-12-25T03:36:32.755Z,5.47
2022-12-25T03:37:32.678Z,5.47
2022-12-25T03:38:32.759Z,5.71
2022-12-25T03:39:32.635Z,5.84
2022-12-25T03:40:32.677Z,5.92
2022-12-25T03:41:32.694Z,5.97
2022-12-25T03:42:32.697Z,6.01
2022-12-25T03:43:32.603Z,6.03
2022-12-25T03:44:33.637Z,6.05
2022-12-25T03:45:32.549Z,6.06
2022-12-25T03:46:32.670Z,6.06
2022-12-25T03:47:32.526Z,6.06
2022-12-25T03:48:32.690Z,6.06
2022-12-25T03:49:32.540Z,6.06
2022-12-25T03:50:32.610Z,6.06
2022-12-25T03:51:32.476Z,6.07
2022-12-25T03:52:33.567Z,6.08
2022-12-25T03:53:32.465Z,6.09
2022-12-25T03:54:32.487Z,6.11
2022-12-25T03:55:32.442Z,6.13
2022-12-25T03:56:33.542Z,6.15
2022-12-25T03:57:32.387Z,6.17
2022-12-25T03:58:32.457Z,6.18
2022-12-25T03:59:32.369Z,6.19
2022-12-25T04:00:32.487Z,6.20
2022-12-25T04:01:32.497Z,6.20
2022-12-25T04:02:32.695Z,6.21
2022-12-25T04:03:32.361Z,6.21
2022-12-25T04:04:32.361Z,6.21
2022-12-25T04:05:32.285Z,6.21
2022-12-25T04:06:32.395Z,6.20
2022-12-25T04:07:32.279Z,6.19
2022-12-25T04:08:32.331Z,6.18
2022-12-25T04:09:32.236Z,6.17
2022-12-25T04:10:32.375Z,6.16
2022-12-25T04:11:32.256Z,6.15
2022-12-25T04:12:32.301Z,6.15
2022-12-25T04:13:32.198Z,6.14
2022-12-25T04:14:32.237Z,6.14
2022-12-25T04:15:32.168Z,6.14
2022-12-25T04:16:32.274Z,6.14
2022-12-25T04:17:32.135Z,6.13
2022-12-25T04:18:32.221Z,6.13
2022-12-25T04:19:32.125Z,6.13
2022-12-25T04:20:32.247Z,6.13
2022-12-25T04:21:32.079Z,6.13
2022-12-25T04:22:32.167Z,6.13
2022-12-25T04:23:32.055Z,6.12
2022-12-25T04:24:33.137Z,6.12
2022-12-25T04:25:32.054Z,6.11
2022-12-25T04:26:33.173Z,6.10
2022-12-25T04:27:31.997Z,6.09
2022-12-25T04:28:32.006Z,6.09
2022-12-25T04:29:31.976Z,6.09
2022-12-25T04:30:32.126Z,6.09
2022-12-25T04:31:32.031Z,6.09
2022-12-25T04:32:32.054Z,6.08
2022-12-25T04:33:31.918Z,6.07
2022-12-25T04:34:31.995Z,6.06
2022-12-25T04:35:31.886Z,6.07
2022-12-25T04:36:34.019Z,6.08
2022-12-25T04:37:31.896Z,6.10
2022-12-25T04:38:31.963Z,6.09
2022-12-25T04:39:31.836Z,6.08
2022-12-25T04:40:31.887Z,6.07
2022-12-25T04:41:31.805Z,6.06
2022-12-25T04:42:32.853Z,6.04
2022-12-25T04:43:31.796Z,6.02
2022-12-25T04:44:31.879Z,6.00
2022-12-25T04:45:31.775Z,5.98
2022-12-25T04:46:31.841Z,5.95
2022-12-25T04:47:31.725Z,5.94
2022-12-25T04:48:31.835Z,5.93
2022-12-25T04:49:31.731Z,5.94
2022-12-25T04:50:31.766Z,5.95
2022-12-25T04:51:31.678Z,5.95
2022-12-25T04:52:31.805Z,5.96
2022-12-25T04:53:31.644Z,5.95
2022-12-25T04:54:31.745Z,5.94
2022-12-25T04:55:31.652Z,5.93
2022-12-25T04:56:31.793Z,5.91
2022-12-25T04:57:31.598Z,5.90
2022-12-25T04:58:31.727Z,5.89
2022-12-25T04:59:31.573Z,5.88
2022-12-25T05:00:31.643Z,5.88
2022-12-25T05:01:31.708Z,5.88
2022-12-25T05:02:31.815Z,5.88
2022-12-25T05:03:31.554Z,5.88
2022-12-25T05:04:33.715Z,5.88
2022-12-25T05:05:31.493Z,5.87
2022-12-25T05:06:31.654Z,5.87
2022-12-25T05:07:31.476Z,5.89
2022-12-25T05:08:31.482Z,5.89
2022-12-25T05:09:31.437Z,5.89
2022-12-25T05:10:31.522Z,5.89
2022-12-25T05:11:31.403Z,5.88
2022-12-25T05:12:31.507Z,5.88
2022-12-25T05:13:31.403Z,5.88
2022-12-25T05:14:31.497Z,5.87
2022-12-25T05:15:31.356Z,5.85
2022-12-25T05:16:31.589Z,5.84
2022-12-25T05:17:31.331Z,5.82
2022-12-25T05:18:31.363Z,5.80
2022-12-25T05:19:31.327Z,5.78
2022-12-25T05:20:36.366Z,5.77
2022-12-25T05:21:32.272Z,5.76
2022-12-25T05:22:32.360Z,5.76
2022-12-25T05:23:31.258Z,5.76
2022-12-25T05:24:31.374Z,5.76
2022-12-25T05:25:31.271Z,5.75
2022-12-25T05:26:31.310Z,5.75
2022-12-25T05:27:31.214Z,5.74
2022-12-25T05:28:31.237Z,5.73
2022-12-25T05:29:31.188Z,5.72
2022-12-25T05:30:31.294Z,5.71
2022-12-25T05:31:31.195Z,5.71
2022-12-25T05:32:31.323Z,5.70
2022-12-25T05:33:31.132Z,5.69
2022-12-25T05:34:31.245Z,5.68
2022-12-25T05:35:31.082Z,5.66
2022-12-25T05:36:31.181Z,5.64
2022-12-25T05:37:31.121Z,5.63
2022-12-25T05:38:52.078Z,5.62
2022-12-25T05:39:31.049Z,5.62
2022-12-25T05:40:31.166Z,5.63
2022-12-25T05:41:34.551Z,5.64
2022-12-25T05:42:30.991Z,5.66
2022-12-25T05:43:32.146Z,5.67
2022-12-25T05:44:30.981Z,5.68
2022-12-25T05:45:31.093Z,5.68
2022-12-25T05:46:31.020Z,5.68
2022-12-25T05:47:31.130Z,5.68
2022-12-25T05:48:30.919Z,5.66
2022-12-25T05:49:34.295Z,5.64
2022-12-25T05:50:30.889Z,5.62
2022-12-25T05:51:30.997Z,5.61
2022-12-25T05:52:30.892Z,5.61
2022-12-25T05:53:30.940Z,5.60
2022-12-25T05:54:30.833Z,5.60
2022-12-25T05:55:31.018Z,5.59
2022-12-25T05:56:30.821Z,5.59
2022-12-25T05:57:31.828Z,5.59
2022-12-25T05:58:30.794Z,5.59
2022-12-25T05:59:30.840Z,5.59
2022-12-25T06:00:30.757Z,5.59
2022-12-25T06:01:31.017Z,5.58
2022-12-25T06:02:30.969Z,5.57
2022-12-25T06:03:30.947Z,5.55
2022-12-25T06:04:30.706Z,5.53
2022-12-25T06:05:30.838Z,5.52
2022-12-25T06:06:30.679Z,5.51
2022-12-25T06:07:31.860Z,5.50
2022-12-25T06:08:30.651Z,5.49
2022-12-25T06:09:30.709Z,5.49
2022-12-25T06:10:30.624Z,5.50
2022-12-25T06:11:30.748Z,5.51
2022-12-25T06:12:30.601Z,5.51
2022-12-25T06:13:30.669Z,5.51
2022-12-25T06:14:30.572Z,5.50
2022-12-25T06:15:30.719Z,5.47
2022-12-25T06:16:37.293Z,5.45
2022-12-25T06:17:31.529Z,5.43
2022-12-25T06:18:32.714Z,5.43
2022-12-25T06:19:30.518Z,5.43
2022-12-25T06:20:30.659Z,5.44
2022-12-25T06:21:30.468Z,5.46
2022-12-25T06:22:30.590Z,5.49
2022-12-25T06:23:30.479Z,5.51
2022-12-25T06:24:51.558Z,5.51
2022-12-25T06:25:30.417Z,5.51
2022-12-25T06:26:30.558Z,5.50
2022-12-25T06:27:30.400Z,5.50
2022-12-25T06:28:30.411Z,5.50
2022-12-25T06:29:30.368Z,5.51
2022-12-25T06:30:30.597Z,5.51
2022-12-25T06:31:30.407Z,5.51
2022-12-25T06:32:30.473Z,5.51
2022-12-25T06:33:30.318Z,5.51
2022-12-25T06:34:30.398Z,5.51
2022-12-25T06:35:30.291Z,5.51
2022-12-25T06:36:31.397Z,5.50
2022-12-25T06:37:30.270Z,5.49
2022-12-25T06:38:30.381Z,5.49
2022-12-25T06:39:30.236Z,5.48
2022-12-25T06:40:30.307Z,5.47
2022-12-25T06:41:30.221Z,5.46
2022-12-25T06:42:30.293Z,5.46
2022-12-25T06:43:30.176Z,5.45
2022-12-25T06:44:30.282Z,5.46
2022-12-25T06:45:30.272Z,5.45
2022-12-25T06:46:30.315Z,5.44
2022-12-25T06:47:30.140Z,5.42
2022-12-25T06:48:33.476Z,5.43
2022-12-25T06:49:30.110Z,5.43
2022-12-25T06:50:30.185Z,5.44
2022-12-25T06:51:30.078Z,5.44
2022-12-25T06:52:32.224Z,5.45
2022-12-25T06:53:33.620Z,5.46
2022-12-25T06:54:31.055Z,5.46
2022-12-25T06:55:30.150Z,5.46
2022-12-25T06:56:30.006Z,5.47
2022-12-25T06:57:30.181Z,5.47
2022-12-25T06:58:29.990Z,5.48
2022-12-25T06:59:31.127Z,5.48
2022-12-25T07:00:30.091Z,5.48
2022-12-25T07:01:30.249Z,5.48
2022-12-25T07:02:30.030Z,5.48
2022-12-25T07:03:29.994Z,5.48
2022-12-25T07:04:29.897Z,5.47
2022-12-25T07:05:29.995Z,5.46
2022-12-25T07:06:29.906Z,5.47
2022-12-25T07:07:30.032Z,5.48
2022-12-25T07:08:29.852Z,5.49
2022-12-25T07:09:29.971Z,5.51
2022-12-25T07:10:29.826Z,5.54
2022-12-25T07:11:30.012Z,5.57
2022-12-25T07:12:29.820Z,5.60
2022-12-25T07:13:29.833Z,5.63
2022-12-25T07:14:29.774Z,5.65
2022-12-25T07:15:29.872Z,5.67
2022-12-25T07:16:29.822Z,5.70
2022-12-25T07:17:29.930Z,5.72
2022-12-25T07:18:29.733Z,5.75
2022-12-25T07:19:29.847Z,5.77
2022-12-25T07:20:29.738Z,5.79
2022-12-25T07:21:29.884Z,5.80
2022-12-25T07:22:29.659Z,5.81
2022-12-25T07:23:50.753Z,5.80
2022-12-25T07:24:29.633Z,5.81
2022-12-25T07:25:35.213Z,5.82
2022-12-25T07:26:30.613Z,5.82
2022-12-25T07:27:29.685Z,5.83
2022-12-25T07:28:29.591Z,5.84
2022-12-25T07:29:32.945Z,5.86
2022-12-25T07:30:29.675Z,5.86
2022-12-25T07:31:29.680Z,5.85
2022-12-25T07:32:29.533Z,5.85
2022-12-25T07:33:29.590Z,5.85
2022-12-25T07:34:29.502Z,5.85
2022-12-25T07:35:32.801Z,5.86
2022-12-25T07:36:29.471Z,5.88
2022-12-25T07:37:29.551Z,5.89
2022-12-25T07:38:29.447Z,5.92
2022-12-25T07:39:29.603Z,5.94
2022-12-25T07:40:29.431Z,5.97
2022-12-25T07:41:29.486Z,6.00
2022-12-25T07:42:29.393Z,6.02
2022-12-25T07:43:29.462Z,6.04
2022-12-25T07:44:29.371Z,6.05
2022-12-25T07:45:29.573Z,6.06
2022-12-25T07:46:29.378Z,6.06
2022-12-25T07:47:29.500Z,6.06
2022-12-25T07:48:29.327Z,6.05
2022-12-25T07:49:29.380Z,6.06
2022-12-25T07:50:29.296Z,6.08
2022-12-25T07:51:29.401Z,6.09
2022-12-25T07:52:29.275Z,6.10
2022-12-25T07:53:29.395Z,6.11
2022-12-25T07:54:29.231Z,6.12
2022-12-25T07:55:29.381Z,6.14
2022-12-25T07:56:29.225Z,6.15
2022-12-25T07:57:29.313Z,6.16
2022-12-25T07:58:29.195Z,6.17
2022-12-25T07:59:30.320Z,6.16
2022-12-25T08:00:29.160Z,6.15
2022-12-25T08:01:30.587Z,6.15
2022-12-25T08:02:29.603Z,6.14
2022-12-25T08:03:29.532Z,6.13
2022-12-25T08:04:29.133Z,6.13
2022-12-25T08:05:29.308Z,6.11
2022-12-25T08:06:29.079Z,6.10
2022-12-25T08:07:29.188Z,6.08
2022-12-25T08:08:29.060Z,6.05
2022-12-25T08:09:30.145Z,6.04
2022-12-25T08:10:29.026Z,6.02
2022-12-25T08:11:29.121Z,5.99
2022-12-25T08:12:28.999Z,5.96
2022-12-25T08:13:29.091Z,5.94
2022-12-25T08:14:28.969Z,5.92
2022-12-25T08:15:29.128Z,5.90
2022-12-25T08:16:28.993Z,5.87
2022-12-25T08:17:29.016Z,5.84
2022-12-25T08:18:30.064Z,5.81
2022-12-25T08:19:28.999Z,5.79
2022-12-25T08:20:28.888Z,5.78
2022-12-25T08:21:29.034Z,5.78
2022-12-25T08:22:28.857Z,5.78
2022-12-25T08:23:29.029Z,5.78
2022-12-25T08:24:28.835Z,5.77
2022-12-25T08:25:29.012Z,5.77
2022-12-25T08:26:28.816Z,5.77
2022-12-25T08:27:30.954Z,5.77
2022-12-25T08:28:28.788Z,5.77
2022-12-25T08:29:28.925Z,5.76
2022-12-25T08:30:28.817Z,5.75
2022-12-25T08:31:28.907Z,5.75
2022-12-25T08:32:28.728Z,5.74
2022-12-25T08:33:29.867Z,5.73
2022-12-25T08:34:28.698Z,5.72
2022-12-25T08:35:28.828Z,5.72
2022-12-25T08:36:28.687Z,5.71
2022-12-25T08:37:28.718Z,5.69
2022-12-25T08:38:28.650Z,5.68
2022-12-25T08:39:30.843Z,5.67
2022-12-25T08:40:28.626Z,5.66
2022-12-25T08:41:28.740Z,5.65
2022-12-25T08:42:28.595Z,5.64
2022-12-25T08:43:28.729Z,5.63
2022-12-25T08:44:28.617Z,5.63
2022-12-25T08:45:34.687Z,5.63
2022-12-25T08:46:29.651Z,5.63
2022-12-25T08:47:28.607Z,5.63
2022-12-25T08:48:28.520Z,5.64
2022-12-25T08:49:28.628Z,5.64
2022-12-25T08:50:28.521Z,5.64
2022-12-25T08:51:29.584Z,5.64
2022-12-25T08:52:28.489Z,5.65
2022-12-25T08:53:28.603Z,5.66
2022-12-25T08:54:28.439Z,5.68
2022-12-25T08:55:29.557Z,5.70
2022-12-25T08:56:28.414Z,5.72
2022-12-25T08:57:28.466Z,5.76
2022-12-25T08:58:28.417Z,5.79
2022-12-25T08:59:28.509Z,5.81
2022-12-25T09:00:28.353Z,5.85
2022-12-25T09:01:28.652Z,5.90
2022-12-25T09:02:28.627Z,5.96
2022-12-25T09:03:28.482Z,6.01
2022-12-25T09:04:28.325Z,6.08
2022-12-25T09:05:28.500Z,6.14
2022-12-25T09:06:28.289Z,6.21
2022-12-25T09:07:28.345Z,6.26
2022-12-25T09:08:28.247Z,6.30
2022-12-25T09:09:28.401Z,6.34
2022-12-25T09:10:28.244Z,6.37
2022-12-25T09:11:28.420Z,6.40
2022-12-25T09:12:28.197Z,6.43
2022-12-25T09:13:28.234Z,6.44
2022-12-25T09:14:28.174Z,6.44
2022-12-25T09:15:28.345Z,6.44
2022-12-25T09:16:28.252Z,6.45
2022-12-25T09:17:28.218Z,6.47
2022-12-25T09:18:28.117Z,6.48
2022-12-25T09:19:30.344Z,6.50
2022-12-25T09:20:28.085Z,6.52
2022-12-25T09:21:28.294Z,6.55
2022-12-25T09:22:28.083Z,6.60
2022-12-25T09:23:28.124Z,6.65
2022-12-25T09:24:28.035Z,6.69
2022-12-25T09:25:28.154Z,6.72
2022-12-25T09:26:28.024Z,6.75
2022-12-25T09:27:28.093Z,6.78
2022-12-25T09:28:28.001Z,6.81
2022-12-25T09:29:28.135Z,6.84
2022-12-25T09:30:27.965Z,6.86
2022-12-25T09:31:28.181Z,6.89
2022-12-25T09:32:27.937Z,6.95
2022-12-25T09:33:28.003Z,6.99
2022-12-25T09:34:27.924Z,7.05
2022-12-25T09:35:28.043Z,7.10
2022-12-25T09:36:27.879Z,7.16
2022-12-25T09:37:27.980Z,7.22
2022-12-25T09:38:27.849Z,7.28
2022-12-25T09:39:28.023Z,7.36
2022-12-25T09:40:27.843Z,7.44
2022-12-25T09:41:27.949Z,7.51
2022-12-25T09:42:27.794Z,7.58
2022-12-25T09:43:27.874Z,7.65
2022-12-25T09:44:27.773Z,7.72
2022-12-25T09:45:27.857Z,7.80
2022-12-25T09:46:33.187Z,7.87
2022-12-25T09:47:28.730Z,7.95
2022-12-25T09:48:27.771Z,8.02
2022-12-25T09:49:27.718Z,8.10
2022-12-25T09:50:27.782Z,8.16
2022-12-25T09:51:27.682Z,8.22
2022-12-25T09:52:27.745Z,8.27
2022-12-25T09:53:27.655Z,8.32
2022-12-25T09:54:27.709Z,8.37
2022-12-25T09:55:27.621Z,8.42
2022-12-25T09:56:27.767Z,8.47
2022-12-25T09:57:27.592Z,8.53
2022-12-25T09:58:29.694Z,8.57
2022-12-25T09:59:27.562Z,8.60
2022-12-25T10:00:27.732Z,8.64
2022-12-25T10:01:27.710Z,8.69
2022-12-25T10:02:27.780Z,8.73
2022-12-25T10:03:27.549Z,8.78
2022-12-25T10:04:27.662Z,8.82
2022-12-25T10:05:27.492Z,8.86
2022-12-25T10:06:27.642Z,8.89
2022-12-25T10:07:27.461Z,8.93
2022-12-25T10:08:27.579Z,8.96
2022-12-25T10:09:27.436Z,8.99
2022-12-25T10:10:27.556Z,9.02
2022-12-25T10:11:27.435Z,9.05
2022-12-25T10:12:27.501Z,9.07
2022-12-25T10:13:27.384Z,9.09
2022-12-25T10:14:27.480Z,9.11
2022-12-25T10:15:27.355Z,9.13
2022-12-25T10:16:27.500Z,9.16
2022-12-25T10:17:27.342Z,9.17
2022-12-25T10:18:27.445Z,9.19
2022-12-25T10:19:27.306Z,9.21
2022-12-25T10:20:27.486Z,9.23
2022-12-25T10:21:27.272Z,9.25
2022-12-25T10:22:27.367Z,9.25
2022-12-25T10:23:27.249Z,9.26
2022-12-25T10:24:27.350Z,9.28
2022-12-25T10:25:27.511Z,9.30
2022-12-25T10:26:48.363Z,9.32
2022-12-25T10:27:27.192Z,9.34
2022-12-25T10:28:27.373Z,9.37
2022-12-25T10:29:27.172Z,9.39
2022-12-25T10:30:27.358Z,9.42
2022-12-25T10:31:27.215Z,9.46
2022-12-25T10:32:27.189Z,9.51
2022-12-25T10:33:27.117Z,9.54
2022-12-25T10:34:27.228Z,9.58
2022-12-25T10:35:27.083Z,9.60
2022-12-25T10:36:27.173Z,9.61
2022-12-25T10:37:27.065Z,9.63
2022-12-25T10:38:28.236Z,9.64
2022-12-25T10:39:27.036Z,9.68
2022-12-25T10:40:27.069Z,9.72
2022-12-25T10:41:27.016Z,9.77
2022-12-25T10:42:27.061Z,9.82
2022-12-25T10:43:26.994Z,9.85
2022-12-25T10:44:28.127Z,9.88
2022-12-25T10:45:26.942Z,9.91
2022-12-25T10:46:27.058Z,9.95
2022-12-25T10:47:26.931Z,9.98
2022-12-25T10:48:27.076Z,10.01
2022-12-25T10:49:26.900Z,10.05
2022-12-25T10:50:27.930Z,10.08
2022-12-25T10:51:26.885Z,10.12
2022-12-25T10:52:27.007Z,10.14
2022-12-25T10:53:26.870Z,10.15
2022-12-25T10:54:26.985Z,10.16
2022-12-25T10:55:29.575Z,10.18
2022-12-25T10:56:26.912Z,10.20
2022-12-25T10:57:26.790Z,10.24
2022-12-25T10:58:27.919Z,10.27
2022-12-25T10:59:26.770Z,10.31
2022-12-25T11:00:26.880Z,10.36
2022-12-25T11:01:26.837Z,10.39
2022-12-25T11:02:26.988Z,10.43
2022-12-25T11:03:26.842Z,10.46
2022-12-25T11:04:26.918Z,10.49
2022-12-25T11:05:26.754Z,10.51
2022-12-25T11:06:26.789Z,10.51
2022-12-25T11:07:26.659Z,10.50
2022-12-25T11:08:26.731Z,10.52
2022-12-25T11:09:26.632Z,10.52
2022-12-25T11:10:26.713Z,10.53
2022-12-25T11:11:26.601Z,10.54
2022-12-25T11:12:27.719Z,10.57
2022-12-25T11:13:26.570Z,10.57
2022-12-25T11:14:26.740Z,10.57
2022-12-25T11:15:26.551Z,10.58
2022-12-25T11:16:26.834Z,10.60
2022-12-25T11:17:26.521Z,10.61
2022-12-25T11:18:26.598Z,10.62
2022-12-25T11:19:26.491Z,10.65
2022-12-25T11:20:26.640Z,10.68
2022-12-25T11:21:26.471Z,10.69
2022-12-25T11:22:26.629Z,10.68
2022-12-25T11:23:26.451Z,10.67
2022-12-25T11:25:35.885Z,10.04
2022-12-25T11:26:35.672Z,10.04
2022-12-25T11:27:35.763Z,10.28
2022-12-25T11:28:35.661Z,10.40
2022-12-25T11:29:56.734Z,10.48
2022-12-25T11:30:35.637Z,10.52
2022-12-25T11:31:35.699Z,10.55
2022-12-25T11:32:35.599Z,10.57
2022-12-25T11:33:35.688Z,10.59
2022-12-25T11:34:35.570Z,10.61
2022-12-25T11:35:35.657Z,10.63
2022-12-25T11:36:35.561Z,10.63
2022-12-25T11:37:35.711Z,10.63
2022-12-25T11:38:35.521Z,10.63
2022-12-25T11:39:35.688Z,10.65
2022-12-25T11:40:35.550Z,10.67
2022-12-25T11:41:58.734Z,10.68
2022-12-25T11:42:35.472Z,10.67
2022-12-25T11:43:35.602Z,10.68
2022-12-25T11:44:35.463Z,10.69
2022-12-25T11:45:35.592Z,10.69
2022-12-25T11:46:35.453Z,10.68
2022-12-25T11:47:36.609Z,10.68
2022-12-25T11:48:35.393Z,10.69
2022-12-25T11:49:35.557Z,10.71
2022-12-25T11:50:35.374Z,10.74
2022-12-25T11:51:35.495Z,10.77
2022-12-25T11:52:35.333Z,10.79
2022-12-25T11:53:36.401Z,10.81
2022-12-25T11:54:35.313Z,10.83
2022-12-25T11:55:35.406Z,10.86
2022-12-25T11:56:35.291Z,10.88
2022-12-25T11:57:35.403Z,10.91
2022-12-25T11:58:35.263Z,10.97
2022-12-25T11:59:35.285Z,11.00
2022-12-25T12:00:35.230Z,11.03
2022-12-25T12:01:35.392Z,11.05
2022-12-25T12:02:35.325Z,11.07
2022-12-25T12:03:35.466Z,11.09
2022-12-25T12:04:42.011Z,11.10
2022-12-25T12:05:36.191Z,11.10
2022-12-25T12:06:35.253Z,11.11
2022-12-25T12:07:35.140Z,11.12
2022-12-25T12:08:35.298Z,11.13
2022-12-25T12:09:35.138Z,11.14
2022-12-25T12:10:35.223Z,11.14
2022-12-25T12:11:35.091Z,11.14
2022-12-25T12:12:58.247Z,11.16
2022-12-25T12:13:35.068Z,11.18
2022-12-25T12:14:35.093Z,11.17
2022-12-25T12:15:35.065Z,11.14
2022-12-25T12:16:35.176Z,11.11
2022-12-25T12:17:35.011Z,11.10
2022-12-25T12:18:35.165Z,11.09
2022-12-25T12:19:34.980Z,11.08
2022-12-25T12:20:35.106Z,11.08
2022-12-25T12:21:34.975Z,11.10
2022-12-25T12:22:35.035Z,11.13
2022-12-25T12:23:34.939Z,11.15
2022-12-25T12:24:34.959Z,11.16
2022-12-25T12:25:34.901Z,11.15
2022-12-25T12:26:35.012Z,11.12
2022-12-25T12:27:34.899Z,11.10
2022-12-25T12:28:35.063Z,11.09
2022-12-25T12:29:34.851Z,11.08
2022-12-25T12:30:37.113Z,11.05
2022-12-25T12:31:34.858Z,11.04
2022-12-25T12:32:34.927Z,11.04
2022-12-25T12:33:34.822Z,11.04
2022-12-25T12:34:35.899Z,11.04
2022-12-25T12:35:34.774Z,11.06
2022-12-25T12:36:36.456Z,11.07
2022-12-25T12:37:34.757Z,11.07
2022-12-25T12:38:34.925Z,11.07
2022-12-25T12:39:34.747Z,11.06
2022-12-25T12:40:55.844Z,11.06
2022-12-25T12:41:34.692Z,11.06
2022-12-25T12:42:34.684Z,11.05
2022-12-25T12:43:34.881Z,11.03
2022-12-25T12:44:34.674Z,11.01
2022-12-25T12:45:35.806Z,11.01
2022-12-25T12:46:34.675Z,11.01
2022-12-25T12:47:34.722Z,11.03
2022-12-25T12:48:34.594Z,11.06
2022-12-25T12:49:34.676Z,11.12
2022-12-25T12:50:34.571Z,11.17
2022-12-25T12:51:34.771Z,11.19
2022-12-25T12:52:34.563Z,11.19
2022-12-25T12:53:34.730Z,11.18
2022-12-25T12:54:34.526Z,11.16
2022-12-25T12:55:34.569Z,11.14
2022-12-25T12:56:34.492Z,11.14
2022-12-25T12:57:34.553Z,11.13
2022-12-25T12:58:34.463Z,11.12
2022-12-25T13:00:43.869Z,10.59
2022-12-25T13:01:43.824Z,10.59
2022-12-25T13:02:43.929Z,10.84
2022-12-25T13:03:43.695Z,10.98
2022-12-25T13:04:43.787Z,11.03
2022-12-25T13:05:43.671Z,11.05
2022-12-25T13:06:43.833Z,11.06
2022-12-25T13:07:43.909Z,11.09
2022-12-25T13:08:44.054Z,11.08
2022-12-25T13:09:43.633Z,11.05
2022-12-25T13:10:43.692Z,11.01
2022-12-25T13:11:43.583Z,11.00
2022-12-25T13:12:43.628Z,10.97
2022-12-25T13:13:43.558Z,10.95
2022-12-25T13:14:43.722Z,10.98
2022-12-25T13:15:43.523Z,11.02
2022-12-25T13:16:44.698Z,11.06